createdAt,value
2018-10-07T00:00:47.660Z,99.99
2018-10-07T00:01:47.735Z,99.99
2018-10-07T00:02:47.714Z,99.99
2018-10-07T00:03:47.745Z,99.99
2018-10-07T00:04:47.770Z,99.99
2018-10-07T00:05:47.797Z,99.99
2018-10-07T00:06:47.824Z,99.99
2018-10-07T00:07:47.854Z,99.99
2018-10-07T00:08:47.884Z,99.99
2018-10-07T00:09:47.912Z,99.99
2018-10-07T00:10:47.941Z,99.99
2018-10-07T00:11:47.968Z,99.99
2018-10-07T00:12:47.996Z,99.99
2018-10-07T00:13:48.021Z,99.99
2018-10-07T00:14:48.053Z,99.99
2018-10-07T00:15:48.078Z,99.99
2018-10-07T00:16:48.110Z,99.99
2018-10-07T00:17:48.133Z,99.99
2018-10-07T00:18:48.161Z,99.99
2018-10-07T00:19:48.190Z,99.99
2018-10-07T00:20:48.221Z,99.99
2018-10-07T00:21:48.245Z,99.99
2018-10-07T00:22:48.277Z,99.99
2018-10-07T00:23:48.304Z,99.99
2018-10-07T00:24:48.330Z,99.99
2018-10-07T00:25:48.357Z,99.99
2018-10-07T00:26:48.388Z,99.99
2018-10-07T00:27:48.417Z,99.99
2018-10-07T00:28:48.443Z,99.99
2018-10-07T00:29:48.472Z,99.99
2018-10-07T00:30:48.498Z,99.99
2018-10-07T00:31:48.524Z,99.99
2018-10-07T00:32:48.555Z,99.99
2018-10-07T00:33:48.584Z,99.99
2018-10-07T00:34:48.609Z,99.99
2018-10-07T00:35:48.637Z,99.99
2018-10-07T00:36:48.665Z,99.99
2018-10-07T00:37:48.692Z,99.99
2018-10-07T00:38:48.723Z,99.99
2018-10-07T00:39:48.751Z,99.99
2018-10-07T00:40:48.777Z,99.99
2018-10-07T00:41:48.808Z,99.99
2018-10-07T00:42:48.835Z,99.99
2018-10-07T00:43:48.864Z,99.99
2018-10-07T00:44:48.891Z,99.99
2018-10-07T00:45:48.916Z,99.99
2018-10-07T00:46:48.947Z,99.99
2018-10-07T00:47:48.977Z,99.99
2018-10-07T00:48:49.004Z,99.99
2018-10-07T00:49:49.033Z,99.99
2018-10-07T00:50:49.059Z,99.99
2018-10-07T00:51:49.086Z,99.99
2018-10-07T00:52:49.113Z,99.99
2018-10-07T00:53:49.141Z,99.99
2018-10-07T00:54:49.172Z,99.99
2018-10-07T00:55:49.197Z,99.99
2018-10-07T00:56:49.228Z,99.99
2018-10-07T00:57:49.254Z,99.99
2018-10-07T00:58:49.280Z,99.99
2018-10-07T00:59:49.314Z,99.99
2018-10-07T01:00:49.338Z,99.99
2018-10-07T01:01:49.368Z,99.99
2018-10-07T01:02:49.393Z,99.99
2018-10-07T01:03:49.418Z,99.99
2018-10-07T01:04:49.447Z,99.99
2018-10-07T01:05:49.480Z,99.99
2018-10-07T01:06:49.503Z,99.99
2018-10-07T01:07:49.533Z,99.99
2018-10-07T01:08:49.558Z,99.99
2018-10-07T01:09:49.595Z,99.99
2018-10-07T01:10:49.616Z,99.99
2018-10-07T01:11:49.650Z,99.99
2018-10-07T01:12:49.673Z,99.99
2018-10-07T01:13:49.700Z,99.99
2018-10-07T01:14:49.725Z,99.99
2018-10-07T01:15:49.752Z,99.99
2018-10-07T01:16:49.782Z,99.99
2018-10-07T01:17:49.808Z,99.99
2018-10-07T01:18:49.839Z,99.99
2018-10-07T01:19:49.867Z,99.99
2018-10-07T01:20:49.895Z,99.99
2018-10-07T01:21:49.922Z,99.99
2018-10-07T01:22:49.950Z,99.99
2018-10-07T01:23:49.976Z,99.99
2018-10-07T01:24:50.007Z,99.99
2018-10-07T01:25:50.034Z,99.99
2018-10-07T01:26:50.062Z,99.99
2018-10-07T01:27:50.092Z,99.99
2018-10-07T01:28:50.116Z,99.99
2018-10-07T01:29:50.146Z,99.99
2018-10-07T01:30:50.173Z,99.99
2018-10-07T01:31:50.199Z,99.99
2018-10-07T01:32:50.227Z,99.99
2018-10-07T01:33:50.256Z,99.99
2018-10-07T01:34:50.283Z,99.99
2018-10-07T01:35:50.311Z,99.99
2018-10-07T01:36:50.341Z,99.99
2018-10-07T01:37:50.366Z,99.99
2018-10-07T01:38:50.401Z,99.99
2018-10-07T01:39:50.423Z,99.99
2018-10-07T01:40:50.451Z,99.99
2018-10-07T01:41:50.479Z,99.99
2018-10-07T01:42:50.506Z,99.99
2018-10-07T01:43:50.534Z,99.99
2018-10-07T01:44:50.565Z,99.99
2018-10-07T01:45:50.592Z,99.99
2018-10-07T01:46:50.622Z,99.99
2018-10-07T01:47:50.647Z,99.99
2018-10-07T01:48:50.674Z,99.99
2018-10-07T01:49:50.701Z,99.99
2018-10-07T01:50:50.731Z,99.99
2018-10-07T01:51:50.759Z,99.99
2018-10-07T01:52:50.788Z,99.99
2018-10-07T01:53:50.814Z,99.99
2018-10-07T01:54:50.841Z,99.99
2018-10-07T01:55:50.871Z,99.99
2018-10-07T01:56:50.897Z,99.99
2018-10-07T01:57:50.928Z,99.99
2018-10-07T01:58:50.954Z,99.99
2018-10-07T01:59:50.980Z,99.99
2018-10-07T02:00:51.011Z,99.99
2018-10-07T02:01:51.035Z,99.99
2018-10-07T02:02:51.066Z,99.99
2018-10-07T02:03:51.095Z,99.99
2018-10-07T02:04:51.124Z,99.99
2018-10-07T02:05:51.149Z,99.99
2018-10-07T02:06:51.175Z,99.99
2018-10-07T02:07:51.206Z,99.99
2018-10-07T02:08:51.234Z,99.99
2018-10-07T02:09:51.259Z,99.99
2018-10-07T02:10:51.290Z,99.99
2018-10-07T02:11:51.317Z,99.99
2018-10-07T02:12:51.342Z,99.99
2018-10-07T02:13:51.384Z,99.99
2018-10-07T02:14:51.400Z,99.99
2018-10-07T02:15:51.426Z,99.99
2018-10-07T02:16:51.456Z,99.99
2018-10-07T02:17:51.485Z,99.99
2018-10-07T02:18:51.511Z,99.99
2018-10-07T02:19:51.539Z,99.99
2018-10-07T02:20:51.569Z,99.99
2018-10-07T02:21:51.592Z,99.99
2018-10-07T02:22:51.623Z,99.99
2018-10-07T02:23:51.650Z,99.99
2018-10-07T02:24:51.677Z,99.99
2018-10-07T02:25:51.703Z,99.99
2018-10-07T02:26:51.731Z,99.99
2018-10-07T02:27:51.761Z,99.99
2018-10-07T02:28:51.790Z,99.99
2018-10-07T02:29:51.814Z,99.99
2018-10-07T02:30:51.843Z,99.99
2018-10-07T02:31:51.871Z,99.99
2018-10-07T02:32:51.898Z,99.99
2018-10-07T02:33:51.925Z,99.99
2018-10-07T02:34:51.961Z,99.99
2018-10-07T02:35:51.983Z,99.99
2018-10-07T02:36:52.012Z,99.99
2018-10-07T02:37:52.038Z,99.99
2018-10-07T02:38:52.064Z,99.99
2018-10-07T02:39:52.094Z,99.99
2018-10-07T02:40:52.120Z,99.99
2018-10-07T02:41:52.150Z,99.99
2018-10-07T02:42:52.175Z,99.99
2018-10-07T02:43:52.205Z,99.99
2018-10-07T02:44:52.232Z,99.99
2018-10-07T02:45:52.259Z,99.99
2018-10-07T02:46:52.287Z,99.99
2018-10-07T02:47:52.324Z,99.99
2018-10-07T02:48:52.342Z,99.99
2018-10-07T02:49:52.371Z,99.99
2018-10-07T02:50:52.397Z,99.99
2018-10-07T02:51:52.422Z,99.99
2018-10-07T02:52:52.452Z,99.99
2018-10-07T02:53:52.479Z,99.99
2018-10-07T02:54:52.506Z,99.99
2018-10-07T02:55:52.532Z,99.99
2018-10-07T02:56:52.560Z,99.99
2018-10-07T02:57:52.592Z,99.99
2018-10-07T02:58:52.617Z,99.99
2018-10-07T02:59:52.645Z,99.99
2018-10-07T03:00:52.671Z,99.99
2018-10-07T03:01:52.699Z,99.99
2018-10-07T03:02:52.726Z,99.99
2018-10-07T03:03:52.754Z,99.99
2018-10-07T03:04:52.782Z,99.99
2018-10-07T03:05:52.807Z,99.99
2018-10-07T03:06:52.833Z,99.99
2018-10-07T03:07:52.866Z,99.99
2018-10-07T03:08:52.888Z,99.99
2018-10-07T03:09:52.919Z,99.99
2018-10-07T03:10:52.945Z,99.99
2018-10-07T03:11:52.968Z,99.99
2018-10-07T03:12:52.997Z,99.99
2018-10-07T03:13:53.026Z,99.99
2018-10-07T03:14:53.054Z,99.99
2018-10-07T03:15:53.078Z,99.99
2018-10-07T03:16:53.108Z,99.99
2018-10-07T03:17:53.135Z,99.99
2018-10-07T03:18:53.162Z,99.99
2018-10-07T03:19:53.190Z,99.99
2018-10-07T03:20:53.217Z,99.99
2018-10-07T03:21:53.245Z,99.99
2018-10-07T03:22:53.269Z,99.99
2018-10-07T03:23:53.296Z,99.99
2018-10-07T03:24:53.323Z,99.99
2018-10-07T03:25:53.352Z,99.99
2018-10-07T03:26:53.379Z,99.99
2018-10-07T03:27:53.405Z,99.99
2018-10-07T03:28:53.432Z,99.99
2018-10-07T03:29:53.457Z,99.99
2018-10-07T03:30:53.486Z,99.99
2018-10-07T03:31:53.514Z,99.99
2018-10-07T03:32:53.543Z,99.99
2018-10-07T03:33:53.570Z,99.99
2018-10-07T03:34:53.597Z,99.99
2018-10-07T03:35:53.623Z,99.99
2018-10-07T03:36:53.651Z,99.99
2018-10-07T03:37:53.677Z,99.99
2018-10-07T03:38:53.704Z,99.99
2018-10-07T03:39:53.730Z,99.99
2018-10-07T03:41:36.305Z,99.99
2018-10-07T03:42:36.330Z,99.99
2018-10-07T03:43:36.358Z,99.99
2018-10-07T03:44:36.383Z,99.99
2018-10-07T03:45:36.410Z,99.99
2018-10-07T03:46:36.452Z,99.99
2018-10-07T03:47:36.463Z,99.99
2018-10-07T03:48:36.493Z,99.99
2018-10-07T03:49:36.522Z,99.99
2018-10-07T03:50:36.547Z,99.99
2018-10-07T03:51:36.572Z,99.99
2018-10-07T03:52:36.600Z,99.99
2018-10-07T03:53:36.628Z,99.99
2018-10-07T03:54:36.688Z,99.99
2018-10-07T03:55:36.682Z,99.99
2018-10-07T03:56:36.708Z,99.99
2018-10-07T03:57:36.735Z,99.99
2018-10-07T03:58:36.761Z,99.99
2018-10-07T03:59:36.790Z,99.99
2018-10-07T04:00:36.814Z,99.99
2018-10-07T04:01:36.841Z,99.99
2018-10-07T04:02:36.870Z,99.99
2018-10-07T04:03:36.897Z,99.99
2018-10-07T04:04:36.920Z,99.99
2018-10-07T04:05:36.950Z,99.99
2018-10-07T04:06:36.981Z,99.99
2018-10-07T04:07:37.003Z,99.99
2018-10-07T04:08:37.030Z,99.99
2018-10-07T04:09:37.055Z,99.99
2018-10-07T04:10:37.084Z,99.99
2018-10-07T04:11:37.111Z,99.99
2018-10-07T04:12:37.140Z,99.99
2018-10-07T04:13:37.164Z,99.99
2018-10-07T04:14:37.195Z,99.99
2018-10-07T04:15:37.219Z,99.99
2018-10-07T04:16:37.245Z,99.99
2018-10-07T04:17:37.269Z,99.99
2018-10-07T04:18:37.312Z,99.99
2018-10-07T04:19:37.323Z,99.99
2018-10-07T04:20:37.350Z,99.99
2018-10-07T04:21:37.378Z,99.99
2018-10-07T04:22:37.403Z,99.99
2018-10-07T04:23:37.437Z,99.99
2018-10-07T04:24:40.080Z,99.99
2018-10-07T04:25:37.485Z,99.99
2018-10-07T04:26:37.512Z,99.99
2018-10-07T04:27:37.542Z,99.99
2018-10-07T04:28:37.563Z,99.99
2018-10-07T04:29:37.595Z,99.99
2018-10-07T04:30:37.617Z,99.99
2018-10-07T04:31:37.644Z,99.99
2018-10-07T04:32:37.671Z,99.99
2018-10-07T04:33:37.695Z,99.99
2018-10-07T04:34:37.726Z,99.99
2018-10-07T04:35:37.756Z,99.99
2018-10-07T04:36:37.778Z,99.99
2018-10-07T04:37:37.803Z,99.99
2018-10-07T04:38:37.830Z,99.99
2018-10-07T04:39:37.864Z,99.99
2018-10-07T04:40:37.882Z,99.99
2018-10-07T04:41:37.910Z,99.99
2018-10-07T04:42:37.941Z,99.99
2018-10-07T04:43:37.965Z,99.99
2018-10-07T04:44:37.994Z,99.99
2018-10-07T04:45:38.016Z,99.99
2018-10-07T04:46:38.043Z,99.99
2018-10-07T04:47:38.073Z,99.99
2018-10-07T04:48:38.095Z,99.99
2018-10-07T04:49:38.125Z,99.99
2018-10-07T04:50:38.152Z,99.99
2018-10-07T04:51:38.179Z,99.99
2018-10-07T04:52:38.202Z,99.99
2018-10-07T04:53:38.230Z,99.99
2018-10-07T04:54:38.256Z,99.99
2018-10-07T04:55:38.284Z,99.99
2018-10-07T04:56:38.311Z,99.99
2018-10-07T04:57:38.338Z,99.99
2018-10-07T04:58:38.362Z,99.99
2018-10-07T04:59:38.391Z,99.99
2018-10-07T05:00:38.415Z,99.99
2018-10-07T05:01:38.442Z,99.99
2018-10-07T05:02:38.470Z,99.99
2018-10-07T05:03:38.495Z,99.99
2018-10-07T05:04:38.522Z,99.99
2018-10-07T05:05:38.550Z,99.99
2018-10-07T05:06:38.576Z,99.99
2018-10-07T05:07:38.603Z,99.99
2018-10-07T05:08:38.625Z,99.99
2018-10-07T05:09:38.656Z,99.99
2018-10-07T05:10:38.684Z,99.99
2018-10-07T05:11:38.708Z,99.99
2018-10-07T05:12:38.797Z,99.99
2018-10-07T05:13:38.760Z,99.99
2018-10-07T05:14:38.788Z,99.99
2018-10-07T05:15:38.813Z,99.99
2018-10-07T05:16:38.843Z,99.99
2018-10-07T05:17:38.865Z,99.99
2018-10-07T05:18:38.892Z,99.99
2018-10-07T05:19:38.918Z,99.99
2018-10-07T05:20:38.948Z,99.99
2018-10-07T05:21:38.973Z,99.99
2018-10-07T05:22:39.000Z,99.99
2018-10-07T05:23:39.029Z,99.99
2018-10-07T05:24:39.053Z,99.99
2018-10-07T05:25:39.079Z,99.99
2018-10-07T05:26:39.113Z,99.99
2018-10-07T05:27:39.130Z,99.99
2018-10-07T05:28:39.156Z,99.99
2018-10-07T05:29:39.183Z,99.99
2018-10-07T05:30:39.211Z,99.99
2018-10-07T05:31:39.236Z,99.99
2018-10-07T05:32:39.264Z,99.99
2018-10-07T05:33:39.288Z,99.99
2018-10-07T05:34:39.317Z,99.99
2018-10-07T05:35:39.341Z,99.99
2018-10-07T05:36:39.367Z,99.99
2018-10-07T05:37:39.398Z,99.99
2018-10-07T05:38:39.422Z,99.99
2018-10-07T05:39:39.452Z,99.99
2018-10-07T05:40:39.472Z,99.99
2018-10-07T05:41:39.500Z,99.99
2018-10-07T05:42:39.546Z,99.99
2018-10-07T05:43:39.553Z,99.99
2018-10-07T05:44:39.638Z,99.99
2018-10-07T05:45:39.611Z,99.99
2018-10-07T05:46:39.633Z,99.99
2018-10-07T05:47:39.659Z,99.99
2018-10-07T05:48:39.687Z,99.99
2018-10-07T05:49:39.716Z,99.99
2018-10-07T05:50:39.742Z,99.99
2018-10-07T05:51:39.765Z,99.99
2018-10-07T05:52:39.793Z,99.99
2018-10-07T05:53:39.820Z,99.99
2018-10-07T05:54:39.846Z,99.99
2018-10-07T05:55:39.942Z,99.99
2018-10-07T05:56:39.902Z,99.99
2018-10-07T05:57:39.924Z,99.99
2018-10-07T05:58:39.950Z,99.99
2018-10-07T05:59:39.977Z,99.99
2018-10-07T06:00:40.004Z,99.99
2018-10-07T06:01:40.109Z,99.99
2018-10-07T06:02:40.058Z,99.99
2018-10-07T06:03:40.087Z,99.99
2018-10-07T06:04:40.115Z,99.99
2018-10-07T06:05:40.140Z,99.99
2018-10-07T06:06:40.161Z,99.99
2018-10-07T06:07:40.190Z,99.99
2018-10-07T06:08:40.216Z,99.99
2018-10-07T06:09:40.247Z,99.99
2018-10-07T06:10:40.269Z,99.99
2018-10-07T06:11:40.294Z,99.99
2018-10-07T06:12:40.320Z,99.99
2018-10-07T06:13:40.348Z,99.99
2018-10-07T06:14:40.382Z,99.99
2018-10-07T06:15:40.399Z,99.99
2018-10-07T06:16:40.423Z,99.99
2018-10-07T06:17:40.451Z,99.99
2018-10-07T06:18:40.481Z,99.99
2018-10-07T06:19:40.506Z,99.99
2018-10-07T06:20:40.530Z,99.99
2018-10-07T06:21:40.623Z,99.99
2018-10-07T06:22:40.582Z,99.99
2018-10-07T06:23:40.612Z,99.99
2018-10-07T06:24:40.634Z,99.99
2018-10-07T06:25:40.661Z,99.99
2018-10-07T06:26:40.687Z,99.99
2018-10-07T06:27:40.716Z,99.99
2018-10-07T06:28:40.742Z,99.99
2018-10-07T06:29:40.830Z,99.99
2018-10-07T06:30:40.795Z,99.99
2018-10-07T06:31:40.841Z,99.99
2018-10-07T06:32:40.846Z,99.99
2018-10-07T06:33:40.874Z,99.99
2018-10-07T06:34:40.901Z,99.99
2018-10-07T06:35:40.926Z,99.99
2018-10-07T06:36:40.953Z,99.99
2018-10-07T06:37:40.981Z,99.99
2018-10-07T06:38:41.020Z,99.99
2018-10-07T06:39:41.039Z,99.99
2018-10-07T06:40:41.058Z,99.99
2018-10-07T06:41:41.083Z,99.99
2018-10-07T06:42:41.111Z,99.99
2018-10-07T06:43:41.138Z,99.99
2018-10-07T06:44:41.161Z,99.99
2018-10-07T06:45:41.196Z,99.99
2018-10-07T06:46:41.220Z,99.99
2018-10-07T06:47:41.244Z,99.99
2018-10-07T06:48:41.270Z,99.99
2018-10-07T06:49:41.295Z,99.99
2018-10-07T06:50:41.323Z,99.99
2018-10-07T06:51:41.377Z,99.99
2018-10-07T06:52:41.374Z,99.99
2018-10-07T06:53:41.403Z,99.99
2018-10-07T06:54:41.429Z,99.99
2018-10-07T06:55:41.454Z,99.99
2018-10-07T06:56:41.482Z,99.99
2018-10-07T06:57:41.509Z,99.99
2018-10-07T06:58:41.550Z,99.99
2018-10-07T06:59:41.626Z,99.89
2018-10-07T07:00:41.588Z,99.32
2018-10-07T07:01:41.615Z,99.99
2018-10-07T07:02:41.648Z,99.46
2018-10-07T07:03:41.668Z,98.90
2018-10-07T07:04:41.693Z,98.61
2018-10-07T07:05:41.721Z,96.89
2018-10-07T07:06:41.747Z,96.36
2018-10-07T07:07:41.772Z,96.75
2018-10-07T07:08:41.798Z,96.41
2018-10-07T07:09:41.824Z,96.51
2018-10-07T07:10:41.853Z,96.03
2018-10-07T07:11:41.880Z,96.03
2018-10-07T07:12:41.903Z,94.89
2018-10-07T07:13:41.929Z,95.27
2018-10-07T07:14:41.957Z,99.99
2018-10-07T07:15:41.983Z,99.99
2018-10-07T07:16:42.009Z,96.56
2018-10-07T07:17:42.040Z,90.69
2018-10-07T07:18:42.065Z,90.02
2018-10-07T07:19:42.162Z,90.02
2018-10-07T07:20:42.117Z,90.36
2018-10-07T07:21:42.141Z,91.50
2018-10-07T07:22:42.178Z,93.31
2018-10-07T07:23:42.194Z,92.55
2018-10-07T07:24:42.223Z,92.26
2018-10-07T07:25:42.247Z,92.83
2018-10-07T07:26:42.278Z,92.36
2018-10-07T07:27:42.303Z,92.03
2018-10-07T07:28:42.331Z,92.36
2018-10-07T07:29:42.356Z,91.64
2018-10-07T07:30:42.381Z,92.03
2018-10-07T07:31:42.409Z,93.46
2018-10-07T07:32:42.437Z,92.79
2018-10-07T07:33:42.464Z,92.12
2018-10-07T07:34:42.486Z,93.08
2018-10-07T07:35:42.517Z,92.32
2018-10-07T07:36:42.589Z,92.88
2018-10-07T07:37:42.565Z,92.50
2018-10-07T07:38:42.592Z,92.50
2018-10-07T07:39:42.619Z,92.79
2018-10-07T07:40:42.647Z,93.46
2018-10-07T07:41:42.678Z,92.50
2018-10-07T07:42:42.701Z,92.32
2018-10-07T07:43:42.728Z,91.93
2018-10-07T07:44:42.755Z,92.22
2018-10-07T07:45:42.780Z,92.03
2018-10-07T07:46:42.809Z,92.03
2018-10-07T07:47:42.834Z,92.22
2018-10-07T07:48:42.860Z,92.03
2018-10-07T07:49:42.886Z,91.64
2018-10-07T07:50:42.914Z,91.55
2018-10-07T07:51:42.938Z,91.55
2018-10-07T07:52:42.967Z,91.36
2018-10-07T07:53:42.993Z,90.59
2018-10-07T07:54:43.019Z,90.31
2018-10-07T07:55:43.045Z,89.93
2018-10-07T07:56:43.075Z,89.74
2018-10-07T07:57:43.100Z,89.74
2018-10-07T07:58:43.124Z,89.83
2018-10-07T07:59:43.155Z,89.45
2018-10-07T08:00:43.178Z,89.74
2018-10-07T08:01:43.207Z,88.78
2018-10-07T08:02:43.233Z,88.59
2018-10-07T08:03:43.261Z,87.11
2018-10-07T08:04:43.289Z,85.25
2018-10-07T08:05:43.312Z,83.33
2018-10-07T08:06:43.339Z,80.69
2018-10-07T08:07:43.373Z,77.13
2018-10-07T08:08:43.666Z,75.12
2018-10-07T08:09:43.422Z,72.80
2018-10-07T08:10:43.448Z,71.69
2018-10-07T08:11:43.476Z,69.39
2018-10-07T08:12:43.506Z,67.85
2018-10-07T08:13:43.531Z,67.28
2018-10-07T08:14:43.564Z,66.45
2018-10-07T08:15:43.592Z,66.06
2018-10-07T08:16:43.618Z,66.74
2018-10-07T08:17:43.704Z,66.06
2018-10-07T08:18:43.679Z,65.62
2018-10-07T08:19:46.331Z,64.85
2018-10-07T08:20:43.737Z,64.66
2018-10-07T08:21:43.767Z,66.19
2018-10-07T08:22:43.797Z,69.48
2018-10-07T08:23:43.839Z,72.41
2018-10-07T08:24:43.856Z,75.14
2018-10-07T08:25:43.891Z,76.35
2018-10-07T08:26:43.919Z,77.50
2018-10-07T08:27:43.952Z,76.86
2018-10-07T08:28:43.978Z,75.02
2018-10-07T08:29:44.038Z,71.75
2018-10-07T08:30:44.041Z,68.24
2018-10-07T08:31:44.073Z,66.58
2018-10-07T08:32:44.103Z,65.14
2018-10-07T08:33:46.756Z,63.45
2018-10-07T08:34:47.390Z,62.32
2018-10-07T08:35:44.193Z,61.58
2018-10-07T08:36:44.224Z,60.63
2018-10-07T08:37:44.256Z,60.66
2018-10-07T08:38:44.284Z,59.76
2018-10-07T08:39:44.320Z,60.24
2018-10-07T08:40:44.347Z,59.83
2018-10-07T08:41:44.387Z,60.92
2018-10-07T08:42:44.416Z,62.77
2018-10-07T08:43:44.448Z,61.55
2018-10-07T08:44:44.485Z,60.40
2018-10-07T08:45:44.509Z,60.14
2018-10-07T08:46:44.545Z,59.28
2018-10-07T08:47:44.579Z,59.25
2018-10-07T08:48:44.612Z,59.28
2018-10-07T08:49:44.657Z,59.09
2018-10-07T08:50:44.679Z,58.35
2018-10-07T08:51:45.722Z,58.03
2018-10-07T08:52:44.751Z,58.35
2018-10-07T08:53:44.781Z,58.22
2018-10-07T08:54:44.814Z,58.77
2018-10-07T08:55:44.849Z,58.77
2018-10-07T08:56:44.885Z,58.80
2018-10-07T08:57:44.921Z,58.13
2018-10-07T08:58:44.956Z,57.48
2018-10-07T08:59:44.989Z,56.81
2018-10-07T09:00:45.024Z,56.62
2018-10-07T09:01:45.061Z,56.71
2018-10-07T09:02:45.094Z,56.52
2018-10-07T09:03:45.134Z,56.36
2018-10-07T09:04:45.166Z,56.14
2018-10-07T09:05:45.202Z,56.01
2018-10-07T09:06:45.238Z,56.59
2018-10-07T09:07:45.309Z,56.91
2018-10-07T09:08:45.317Z,56.62
2018-10-07T09:09:47.967Z,56.62
2018-10-07T09:10:45.385Z,56.33
2018-10-07T09:11:45.416Z,56.26
2018-10-07T09:12:45.454Z,55.20
2018-10-07T09:13:45.487Z,55.11
2018-10-07T09:14:45.616Z,55.01
2018-10-07T09:15:45.563Z,55.68
2018-10-07T09:16:45.598Z,55.68
2018-10-07T09:17:45.635Z,55.49
2018-10-07T09:18:45.674Z,54.65
2018-10-07T09:19:45.708Z,54.00
2018-10-07T09:20:45.771Z,52.97
2018-10-07T09:21:45.778Z,52.87
2018-10-07T09:22:45.815Z,52.85
2018-10-07T09:23:45.853Z,52.75
2018-10-07T09:24:45.887Z,52.92
2018-10-07T09:25:45.926Z,53.40
2018-10-07T09:26:46.047Z,52.92
2018-10-07T09:27:45.997Z,52.95
2018-10-07T09:28:46.033Z,52.56
2018-10-07T09:29:46.072Z,52.08
2018-10-07T09:30:46.108Z,51.75
2018-10-07T09:31:46.146Z,51.07
2018-10-07T09:32:46.208Z,50.85
2018-10-07T09:33:46.222Z,50.76
2018-10-07T09:34:46.259Z,52.27
2018-10-07T09:35:46.294Z,51.96
2018-10-07T09:36:46.352Z,52.70
2018-10-07T09:37:46.366Z,54.31
2018-10-07T09:38:46.404Z,54.05
2018-10-07T09:39:46.501Z,54.60
2018-10-07T09:40:50.515Z,54.34
2018-10-07T09:41:46.514Z,54.34
2018-10-07T09:42:46.554Z,53.92
2018-10-07T09:43:46.590Z,54.63
2018-10-07T09:44:46.628Z,54.05
2018-10-07T09:45:46.666Z,54.12
2018-10-07T09:46:46.704Z,54.79
2018-10-07T09:47:46.740Z,54.24
2018-10-07T09:48:46.777Z,53.19
2018-10-07T09:49:46.814Z,53.38
2018-10-07T09:50:46.850Z,53.19
2018-10-07T09:51:46.889Z,53.38
2018-10-07T09:52:46.927Z,52.73
2018-10-07T09:53:46.963Z,51.89
2018-10-07T09:54:47.000Z,51.34
2018-10-07T09:55:47.046Z,51.14
2018-10-07T09:56:47.072Z,50.40
2018-10-07T09:57:47.111Z,49.34
2018-10-07T09:58:47.146Z,49.91
2018-10-07T09:59:47.184Z,49.82
2018-10-07T10:00:47.223Z,49.82
2018-10-07T10:01:47.261Z,49.73
2018-10-07T10:02:47.298Z,49.46
2018-10-07T10:03:47.334Z,49.24
2018-10-07T10:04:47.373Z,49.60
2018-10-07T10:05:47.410Z,50.27
2018-10-07T10:06:47.447Z,49.91
2018-10-07T10:07:47.485Z,49.27
2018-10-07T10:08:47.522Z,48.88
2018-10-07T10:09:47.558Z,49.05
2018-10-07T10:10:47.595Z,49.43
2018-10-07T10:11:47.637Z,49.70
2018-10-07T10:12:47.674Z,49.82
2018-10-07T10:13:47.712Z,50.18
2018-10-07T10:14:47.755Z,50.81
2018-10-07T10:15:47.786Z,53.47
2018-10-07T10:16:47.824Z,52.85
2018-10-07T10:17:47.862Z,52.63
2018-10-07T10:18:47.897Z,52.83
2018-10-07T10:19:48.054Z,52.27
2018-10-07T10:20:47.974Z,51.84
2018-10-07T10:21:48.013Z,50.01
2018-10-07T10:22:48.048Z,51.24
2018-10-07T10:23:48.089Z,50.76
2018-10-07T10:24:48.126Z,50.15
2018-10-07T10:25:48.162Z,50.95
2018-10-07T10:26:48.199Z,49.82
2018-10-07T10:27:48.235Z,49.22
2018-10-07T10:28:48.272Z,52.70
2018-10-07T10:29:48.310Z,52.83
2018-10-07T10:30:48.348Z,54.38
2018-10-07T10:31:48.387Z,57.59
2018-10-07T10:32:48.421Z,58.33
2018-10-07T10:33:48.459Z,58.58
2018-10-07T10:34:48.505Z,55.68
2018-10-07T10:35:48.535Z,53.14
2018-10-07T10:36:48.619Z,51.56
2018-10-07T10:37:48.605Z,51.70
2018-10-07T10:38:48.647Z,50.98
2018-10-07T10:39:48.724Z,49.46
2018-10-07T10:40:48.715Z,49.15
2018-10-07T10:41:48.755Z,48.11
2018-10-07T10:42:48.790Z,47.63
2018-10-07T10:43:48.827Z,47.24
2018-10-07T10:44:48.860Z,46.97
2018-10-07T10:45:48.900Z,46.88
2018-10-07T10:46:48.937Z,46.47
2018-10-07T10:47:48.971Z,46.08
2018-10-07T10:48:49.010Z,46.47
2018-10-07T10:49:49.047Z,46.47
2018-10-07T10:50:49.082Z,46.73
2018-10-07T10:51:49.119Z,47.70
2018-10-07T10:52:49.159Z,47.60
2018-10-07T10:53:49.192Z,47.72
2018-10-07T10:54:49.230Z,46.76
2018-10-07T10:55:49.269Z,46.01
2018-10-07T10:56:49.310Z,45.79
2018-10-07T10:57:49.343Z,45.70
2018-10-07T10:58:49.378Z,44.97
2018-10-07T10:59:49.418Z,45.60
2018-10-07T11:00:49.557Z,46.56
2018-10-07T11:01:49.494Z,47.70
2018-10-07T11:02:49.532Z,47.55
2018-10-07T11:03:49.570Z,45.84
2018-10-07T11:04:49.604Z,44.60
2018-10-07T11:05:49.640Z,44.51
2018-10-07T11:06:49.678Z,44.29
2018-10-07T11:07:49.718Z,43.72
2018-10-07T11:08:49.753Z,44.01
2018-10-07T11:09:49.792Z,44.10
2018-10-07T11:10:49.828Z,44.78
2018-10-07T11:11:49.868Z,44.39
2018-10-07T11:12:49.904Z,43.98
2018-10-07T11:13:50.119Z,44.78
2018-10-07T11:14:49.979Z,44.95
2018-10-07T11:15:50.103Z,45.82
2018-10-07T11:16:50.057Z,45.92
2018-10-07T11:17:50.098Z,45.84
2018-10-07T11:18:50.137Z,44.90
2018-10-07T11:19:50.171Z,44.03
2018-10-07T11:20:50.208Z,44.03
2018-10-07T11:21:50.246Z,44.29
2018-10-07T11:22:50.285Z,44.97
2018-10-07T11:23:50.320Z,45.43
2018-10-07T11:24:50.360Z,44.76
2018-10-07T11:25:50.398Z,44.68
2018-10-07T11:26:50.433Z,44.03
2018-10-07T11:27:50.476Z,44.03
2018-10-07T11:28:50.512Z,44.60
2018-10-07T11:29:50.550Z,45.07
2018-10-07T11:30:50.588Z,44.60
2018-10-07T11:31:50.624Z,44.42
2018-10-07T11:32:50.668Z,44.42
2018-10-07T11:33:50.701Z,43.74
2018-10-07T11:34:50.810Z,44.03
2018-10-07T11:35:50.778Z,44.01
2018-10-07T11:36:50.816Z,44.39
2018-10-07T11:37:50.854Z,44.29
2018-10-07T11:38:50.890Z,43.81
2018-10-07T11:39:50.930Z,44.10
2018-10-07T11:40:51.036Z,44.66
2018-10-07T11:41:51.005Z,43.93
2018-10-07T11:42:51.042Z,43.95
2018-10-07T11:43:51.083Z,43.43
2018-10-07T11:44:51.118Z,44.03
2018-10-07T11:45:51.158Z,43.93
2018-10-07T11:46:51.196Z,43.93
2018-10-07T11:47:51.236Z,43.93
2018-10-07T11:48:51.269Z,43.54
2018-10-07T11:49:51.312Z,43.93
2018-10-07T11:50:51.346Z,43.54
2018-10-07T11:51:51.387Z,43.54
2018-10-07T11:52:51.437Z,44.03
2018-10-07T11:53:51.462Z,43.52
2018-10-07T11:54:51.502Z,43.91
2018-10-07T11:55:51.539Z,43.54
2018-10-07T11:56:51.581Z,43.37
2018-10-07T11:57:51.613Z,42.50
2018-10-07T11:58:51.652Z,42.50
2018-10-07T11:59:51.688Z,42.58
2018-10-07T12:00:51.725Z,42.97
2018-10-07T12:01:51.765Z,42.58
2018-10-07T12:02:51.878Z,43.64
2018-10-07T12:03:51.841Z,43.60
2018-10-07T12:04:51.876Z,45.03
2018-10-07T12:05:51.914Z,44.85
2018-10-07T12:06:51.953Z,44.20
2018-10-07T12:07:51.994Z,44.29
2018-10-07T12:08:52.030Z,44.01
2018-10-07T12:09:52.067Z,44.03
2018-10-07T12:10:52.105Z,43.54
2018-10-07T12:11:52.142Z,43.64
2018-10-07T12:12:52.181Z,42.79
2018-10-07T12:13:52.220Z,43.06
2018-10-07T12:14:52.257Z,43.35
2018-10-07T12:15:52.292Z,42.89
2018-10-07T12:16:52.330Z,41.85
2018-10-07T12:17:52.369Z,41.63
2018-10-07T12:18:52.405Z,42.50
2018-10-07T12:19:52.442Z,43.64
2018-10-07T12:20:52.484Z,43.47
2018-10-07T12:21:52.517Z,43.01
2018-10-07T12:22:52.564Z,42.24
2018-10-07T12:23:52.593Z,42.41
2018-10-07T12:24:52.631Z,42.60
2018-10-07T12:25:52.669Z,42.00
2018-10-07T12:26:52.705Z,42.48
2018-10-07T12:27:52.746Z,41.91
2018-10-07T12:28:52.818Z,42.39
2018-10-07T12:29:52.816Z,41.05
2018-10-07T12:30:52.854Z,40.65
2018-10-07T12:31:52.893Z,40.36
2018-10-07T12:32:52.928Z,40.94
2018-10-07T12:33:52.966Z,40.75
2018-10-07T12:34:53.003Z,41.61
2018-10-07T12:35:53.040Z,41.69
2018-10-07T12:36:53.077Z,42.56
2018-10-07T12:37:53.116Z,42.27
2018-10-07T12:38:53.152Z,42.18
2018-10-07T12:39:53.191Z,42.39
2018-10-07T12:40:53.225Z,42.58
2018-10-07T12:41:53.263Z,42.48
2018-10-07T12:42:53.300Z,42.39
2018-10-07T12:43:53.337Z,42.29
2018-10-07T12:44:53.375Z,41.69
2018-10-07T12:45:53.410Z,42.46
2018-10-07T12:48:21.119Z,42.29
2018-10-07T12:49:21.154Z,42.48
2018-10-07T12:50:21.191Z,42.39
2018-10-07T12:51:21.227Z,41.52
2018-10-07T12:52:21.269Z,42.58
2018-10-07T12:53:21.302Z,41.54
2018-10-07T12:54:21.343Z,41.81
2018-10-07T12:55:21.376Z,42.48